createdAt,value
2018-03-04T06:57:59.053Z,96423
2018-03-04T07:00:27.435Z,96426
2018-03-04T07:02:55.773Z,96426
2018-03-04T07:05:24.102Z,96430
2018-03-04T07:07:52.485Z,96429
2018-03-04T07:10:20.812Z,96427
2018-03-04T07:12:49.168Z,96428
2018-03-04T07:15:17.500Z,96429
2018-03-04T07:17:45.902Z,96434
2018-03-04T07:20:14.319Z,96432
2018-03-04T07:22:42.670Z,96437
2018-03-04T07:25:11.087Z,96436
2018-03-04T07:27:39.521Z,96446
2018-03-04T07:30:07.877Z,96446
2018-03-04T07:32:36.400Z,96453
2018-03-04T07:35:04.787Z,96447
2018-03-04T07:37:33.130Z,96445
2018-03-04T07:40:01.595Z,96441
2018-03-04T07:42:29.986Z,96450
2018-03-04T07:44:58.400Z,96452
2018-03-04T07:47:26.761Z,96457
2018-03-04T07:49:55.226Z,96463
2018-03-04T07:52:23.628Z,96469
2018-03-04T07:54:51.964Z,96470
2018-03-04T07:57:20.323Z,96471
2018-03-04T07:59:48.654Z,96472
2018-03-04T08:02:16.995Z,96477
2018-03-04T08:04:45.336Z,96482
2018-03-04T08:07:13.672Z,96486
2018-03-04T08:09:42.017Z,96487
2018-03-04T08:12:10.384Z,96483
2018-03-04T08:14:39.058Z,96484
2018-03-04T08:17:07.781Z,96488
2018-03-04T08:19:36.127Z,96482
2018-03-04T08:22:04.500Z,96480
2018-03-04T08:24:38.483Z,96486
2018-03-04T08:27:19.099Z,96489
2018-03-04T08:29:47.453Z,96492
2018-03-04T08:32:15.803Z,96495
2018-03-04T08:34:44.134Z,96486
2018-03-04T08:37:12.543Z,96492
2018-03-04T08:39:40.855Z,96497
2018-03-04T08:42:09.289Z,96496
2018-03-04T08:44:37.693Z,96497
2018-03-04T08:47:06.141Z,96498
2018-03-04T08:49:34.527Z,96497
2018-03-04T08:52:02.882Z,96492
2018-03-04T08:54:31.214Z,96494
2018-03-04T08:56:59.627Z,96492
2018-03-04T08:59:27.992Z,96495
2018-03-04T09:01:56.389Z,96493
2018-03-04T09:04:24.716Z,96490
2018-03-04T09:06:53.109Z,96493
2018-03-04T09:09:21.521Z,96498
2018-03-04T09:11:49.865Z,96489
2018-03-04T09:14:18.239Z,96493
2018-03-04T09:16:46.551Z,96490
2018-03-04T09:19:14.902Z,96498
2018-03-04T09:21:43.234Z,96507
2018-03-04T09:24:11.562Z,96504
2018-03-04T09:26:40.010Z,96498
2018-03-04T09:29:08.372Z,96499
2018-03-04T09:31:36.702Z,96498
2018-03-04T09:34:05.089Z,96501
2018-03-04T09:36:33.480Z,96505
2018-03-04T09:39:01.939Z,96507
2018-03-04T09:41:30.302Z,96510
2018-03-04T09:43:58.633Z,96504
2018-03-04T09:46:26.991Z,96503
2018-03-04T09:48:55.348Z,96514
2018-03-04T09:51:23.739Z,96526
2018-03-04T09:53:52.111Z,96531
2018-03-04T09:56:20.527Z,96528
2018-03-04T09:58:48.941Z,96524
2018-03-04T10:01:17.331Z,96524
2018-03-04T10:03:45.705Z,96518
2018-03-04T10:06:14.040Z,96516
2018-03-04T10:08:42.413Z,96519
2018-03-04T10:11:10.764Z,96521
2018-03-04T10:13:39.147Z,96517
2018-03-04T10:16:07.509Z,96521
2018-03-04T10:18:35.848Z,96522
2018-03-04T10:21:04.200Z,96525
2018-03-04T10:23:32.562Z,96523
2018-03-04T10:26:00.954Z,96521
2018-03-04T10:28:29.331Z,96513
2018-03-04T10:30:57.681Z,96521
2018-03-04T10:33:26.007Z,96520
2018-03-04T10:35:54.365Z,96515
2018-03-04T10:38:22.732Z,96519
2018-03-04T10:40:51.087Z,96518
2018-03-04T10:43:19.425Z,96512
2018-03-04T10:45:47.764Z,96515
2018-03-04T10:48:16.114Z,96508
2018-03-04T10:50:44.497Z,96508
2018-03-04T10:53:12.883Z,96509
2018-03-04T10:55:41.251Z,96501
2018-03-04T10:58:09.631Z,96495
2018-03-04T11:00:44.076Z,96486
2018-03-04T11:03:16.512Z,96491
2018-03-04T11:05:46.066Z,96483
2018-03-04T11:08:14.712Z,96489
2018-03-04T11:10:43.133Z,96492
2018-03-04T11:13:11.571Z,96505
2018-03-04T11:15:39.950Z,96493
2018-03-04T11:18:09.320Z,96488
2018-03-04T11:20:38.343Z,96489
2018-03-04T11:23:06.908Z,96487
2018-03-04T11:25:35.274Z,96479
2018-03-04T11:28:03.633Z,96477
2018-03-04T11:30:32.113Z,96477
2018-03-04T11:33:02.052Z,96475
2018-03-04T11:35:30.441Z,96473
2018-03-04T11:37:58.829Z,96466
2018-03-04T11:40:27.193Z,96463
2018-03-04T11:42:55.634Z,96461
2018-03-04T11:45:24.029Z,96449
2018-03-04T11:47:52.420Z,96449
2018-03-04T11:50:20.814Z,96445
2018-03-04T11:52:49.208Z,96448
2018-03-04T11:55:17.617Z,96449
2018-03-04T11:57:46.156Z,96449
2018-03-04T12:00:14.543Z,96453
2018-03-04T12:02:42.880Z,96460
2018-03-04T12:05:11.360Z,96464
2018-03-04T12:07:39.719Z,96469
2018-03-04T12:10:08.040Z,96473
2018-03-04T12:12:36.455Z,96470
2018-03-04T12:15:04.862Z,96458
2018-03-04T12:17:33.310Z,96456
2018-03-04T12:20:01.682Z,96455
2018-03-04T12:22:30.043Z,96459
2018-03-04T12:24:58.446Z,96457
2018-03-04T12:27:26.885Z,96443
2018-03-04T12:29:55.232Z,96447
2018-03-04T12:32:23.633Z,96451
2018-03-04T12:34:51.998Z,96449
2018-03-04T12:37:20.351Z,96452
2018-03-04T12:39:48.778Z,96448
2018-03-04T12:42:17.212Z,96453
2018-03-04T12:44:45.562Z,96444
2018-03-04T12:47:13.976Z,96441
2018-03-04T12:49:42.326Z,96433
2018-03-04T12:52:10.681Z,96433
2018-03-04T12:54:39.016Z,96432
2018-03-04T12:57:07.393Z,96431
2018-03-04T12:59:35.723Z,96429
2018-03-04T13:02:04.090Z,96429
2018-03-04T13:04:32.427Z,96425
2018-03-04T13:07:00.834Z,96423
2018-03-04T13:09:29.172Z,96425
2018-03-04T13:11:57.509Z,96425
2018-03-04T13:14:25.906Z,96423
2018-03-04T13:16:54.233Z,96422
2018-03-04T13:19:22.568Z,96426
2018-03-04T13:21:50.938Z,96416
2018-03-04T13:24:19.285Z,96412
2018-03-04T13:26:47.668Z,96405
2018-03-04T13:29:16.131Z,96412
2018-03-04T13:31:44.482Z,96413
2018-03-04T13:34:12.840Z,96404
2018-03-04T13:36:41.307Z,96404
2018-03-04T13:39:09.669Z,96398
2018-03-04T13:41:38.100Z,96403
2018-03-04T13:44:06.458Z,96403
2018-03-04T13:46:34.906Z,96397
2018-03-04T13:49:03.325Z,96389
2018-03-04T13:51:31.780Z,96380
2018-03-04T13:54:00.217Z,96370
2018-03-04T13:56:28.535Z,96356
2018-03-04T13:58:56.864Z,96348
2018-03-04T14:01:25.203Z,96349
2018-03-04T14:03:53.569Z,96340
2018-03-04T14:06:21.960Z,96345
2018-03-04T14:08:50.299Z,96346
2018-03-04T14:11:18.626Z,96342
2018-03-04T14:13:46.966Z,96339
2018-03-04T14:16:15.306Z,96343
2018-03-04T14:18:43.686Z,96343
2018-03-04T14:21:12.033Z,96344
2018-03-04T14:23:40.379Z,96338
2018-03-04T14:26:08.779Z,96338
2018-03-04T14:28:37.182Z,96335
2018-03-04T14:31:12.694Z,96327
2018-03-04T14:33:41.017Z,96325
2018-03-04T14:36:09.464Z,96317
2018-03-04T14:38:37.853Z,96315
2018-03-04T14:41:06.312Z,96311
2018-03-04T14:43:34.824Z,96314
2018-03-04T14:46:03.349Z,96311
2018-03-04T14:48:31.664Z,96318
2018-03-04T14:51:00.026Z,96309
2018-03-04T14:53:28.386Z,96311
2018-03-04T14:55:56.859Z,96312
2018-03-04T14:58:25.245Z,96315
2018-03-04T15:00:53.643Z,96313
2018-03-04T15:03:22.041Z,96314
2018-03-04T15:05:50.352Z,96308
2018-03-04T15:08:18.826Z,96313
2018-03-04T15:10:47.173Z,96306
2018-03-04T15:13:15.554Z,96310
2018-03-04T15:15:43.902Z,96313
2018-03-04T15:18:12.245Z,96311
2018-03-04T15:20:40.631Z,96317
2018-03-04T15:23:08.958Z,96323
2018-03-04T15:25:37.335Z,96322
2018-03-04T15:28:05.711Z,96325
2018-03-04T15:30:34.114Z,96322
2018-03-04T15:33:02.545Z,96325
2018-03-04T15:35:30.898Z,96327
2018-03-04T15:37:59.253Z,96330
2018-03-04T15:40:28.816Z,96332
2018-03-04T15:42:57.280Z,96330
2018-03-04T15:45:25.625Z,96332
2018-03-04T15:47:54.032Z,96339
2018-03-04T15:50:22.381Z,96335
2018-03-04T15:52:50.784Z,96340
2018-03-04T15:55:19.114Z,96332
2018-03-04T15:57:47.506Z,96329
2018-03-04T16:00:15.931Z,96329
2018-03-04T16:02:44.295Z,96328
2018-03-04T16:05:12.627Z,96331
2018-03-04T16:07:41.028Z,96327
2018-03-04T16:10:09.460Z,96327
2018-03-04T16:12:37.901Z,96329
2018-03-04T16:15:06.325Z,96333
2018-03-04T16:17:34.754Z,96336
2018-03-04T16:20:03.262Z,96333
2018-03-04T16:22:31.719Z,96336
2018-03-04T16:25:00.237Z,96343
2018-03-04T16:27:28.616Z,96346
2018-03-04T16:29:56.993Z,96345
2018-03-04T16:32:25.433Z,96349
2018-03-04T16:34:53.758Z,96346
2018-03-04T16:37:22.313Z,96351
2018-03-04T16:39:50.675Z,96351
2018-03-04T16:42:19.173Z,96351
2018-03-04T16:44:47.594Z,96352
2018-03-04T16:47:16.052Z,96350
2018-03-04T16:49:44.428Z,96355
2018-03-04T16:52:12.822Z,96357
2018-03-04T16:54:41.310Z,96358
2018-03-04T16:57:09.708Z,96353
2018-03-04T16:59:38.148Z,96355
2018-03-04T17:02:06.562Z,96357
2018-03-04T17:04:35.070Z,96365
2018-03-04T17:07:03.715Z,96371
2018-03-04T17:09:32.129Z,96371
2018-03-04T17:12:00.630Z,96371
2018-03-04T17:14:28.982Z,96369
2018-03-04T17:16:57.413Z,96380
2018-03-04T17:19:25.831Z,96376
2018-03-04T17:21:54.193Z,96381
2018-03-04T17:24:22.700Z,96378
2018-03-04T17:26:51.103Z,96375
2018-03-04T17:29:19.576Z,96378
2018-03-04T17:31:48.082Z,96370
2018-03-04T17:34:16.471Z,96370
2018-03-04T17:36:44.927Z,96376
2018-03-04T17:39:13.330Z,96377
2018-03-04T17:41:41.758Z,96370
2018-03-04T17:44:10.159Z,96372
2018-03-04T17:46:38.690Z,96378
2018-03-04T17:49:07.114Z,96371
2018-03-04T17:51:35.555Z,96369
2018-03-04T17:54:03.914Z,96365
2018-03-04T17:56:32.411Z,96362
2018-03-04T17:59:00.766Z,96360
2018-03-04T18:01:29.143Z,96361
2018-03-04T18:03:57.536Z,96361
2018-03-04T18:06:25.925Z,96353
2018-03-04T18:08:54.255Z,96357
2018-03-04T18:11:22.629Z,96362
2018-03-04T18:13:50.968Z,96357
2018-03-04T18:16:19.295Z,96354
2018-03-04T18:18:47.732Z,96356
2018-03-04T18:21:16.106Z,96358
2018-03-04T18:23:44.502Z,96358
2018-03-04T18:26:12.864Z,96352
2018-03-04T18:28:41.211Z,96349
2018-03-04T18:31:09.629Z,96351
2018-03-04T18:33:37.992Z,96354
2018-03-04T18:36:06.428Z,96354
2018-03-04T18:38:34.765Z,96350
2018-03-04T18:41:03.150Z,96344
2018-03-04T18:43:31.555Z,96339
2018-03-04T18:45:59.938Z,96340
2018-03-04T18:48:28.322Z,96342
2018-03-04T18:50:56.667Z,96342
2018-03-04T18:53:25.056Z,96339
2018-03-04T18:55:53.484Z,96335
2018-03-04T18:58:21.841Z,96337
2018-03-04T19:00:50.224Z,96328
2018-03-04T19:03:18.577Z,96334
2018-03-04T19:05:46.937Z,96332
2018-03-04T19:08:15.296Z,96332
2018-03-04T19:10:43.624Z,96337
2018-03-04T19:13:12.820Z,96340
2018-03-04T19:15:41.205Z,96336
2018-03-04T19:18:09.550Z,96335
2018-03-04T19:20:38.030Z,96332
2018-03-04T19:23:06.368Z,96327
2018-03-04T19:25:34.768Z,96325
2018-03-04T19:28:03.178Z,96324
2018-03-04T19:30:31.580Z,96334
2018-03-04T19:32:59.917Z,96331
2018-03-04T19:35:28.512Z,96328
2018-03-04T19:37:56.853Z,96325
2018-03-04T19:40:25.188Z,96339
2018-03-04T19:42:53.599Z,96334
2018-03-04T19:45:21.987Z,96338
2018-03-04T19:47:50.590Z,96343
2018-03-04T19:50:18.946Z,96341
2018-03-04T19:52:47.314Z,96342
2018-03-04T19:55:16.277Z,96339
2018-03-04T19:57:44.745Z,96348
2018-03-04T20:00:13.101Z,96347
2018-03-04T20:02:43.596Z,96344
2018-03-04T20:05:12.008Z,96343
2018-03-04T20:07:40.371Z,96351
2018-03-04T20:10:08.799Z,96354
2018-03-04T20:12:37.209Z,96350
2018-03-04T20:15:05.576Z,96352
2018-03-04T20:17:33.904Z,96355
2018-03-04T20:20:02.282Z,96345
2018-03-04T20:22:30.662Z,96347
2018-03-04T20:24:59.019Z,96345
2018-03-04T20:27:27.454Z,96337
2018-03-04T20:29:55.877Z,96338
2018-03-04T20:32:24.253Z,96341
2018-03-04T20:34:52.611Z,96341
2018-03-04T20:37:21.076Z,96339
2018-03-04T20:39:49.505Z,96343
2018-03-04T20:42:17.860Z,96343
2018-03-04T20:44:46.367Z,96347
2018-03-04T20:47:14.730Z,96338
2018-03-04T20:49:43.892Z,96339
2018-03-04T20:52:12.310Z,96338
2018-03-04T20:54:40.693Z,96335
2018-03-04T20:57:09.079Z,96333
2018-03-04T20:59:37.421Z,96331
2018-03-04T21:02:05.789Z,96333
2018-03-04T21:04:34.244Z,96334
2018-03-04T21:07:02.639Z,96339
2018-03-04T21:09:31.001Z,96342
2018-03-04T21:11:59.361Z,96334
2018-03-04T21:14:28.395Z,96336
2018-03-04T21:16:56.845Z,96340
2018-03-04T21:19:25.575Z,96334
2018-03-04T21:21:54.930Z,96333
2018-03-04T21:24:23.307Z,96336
2018-03-04T21:26:52.037Z,96332
2018-03-04T21:29:20.518Z,96336
2018-03-04T21:31:49.842Z,96331
2018-03-04T21:34:18.251Z,96335
2018-03-04T21:36:46.836Z,96326
2018-03-04T21:39:15.557Z,96324
2018-03-04T21:41:44.633Z,96327
2018-03-04T21:44:13.029Z,96323
2018-03-04T21:46:41.866Z,96327
2018-03-04T21:49:10.233Z,96331
2018-03-04T21:51:39.286Z,96328
2018-03-04T21:54:08.410Z,96320
2018-03-04T21:56:36.787Z,96322
2018-03-04T21:59:05.185Z,96311
2018-03-04T22:01:34.067Z,96308
2018-03-04T22:04:02.437Z,96309
2018-03-04T22:06:30.796Z,96311
2018-03-04T22:08:59.147Z,96307
2018-03-04T22:11:27.723Z,96311
2018-03-04T22:13:56.185Z,96310
2018-03-04T22:16:24.576Z,96316
2018-03-04T22:18:52.939Z,96311
2018-03-04T22:21:21.279Z,96311
2018-03-04T22:23:50.617Z,96313
2018-03-04T22:26:18.941Z,96316
2018-03-04T22:28:47.346Z,96318
2018-03-04T22:31:15.745Z,96314
2018-03-04T22:33:44.053Z,96314
2018-03-04T22:36:12.388Z,96315
2018-03-04T22:38:40.765Z,96316
2018-03-04T22:41:09.102Z,96308
2018-03-04T22:43:37.438Z,96304
2018-03-04T22:46:05.831Z,96306
2018-03-04T22:51:09.123Z,96294
2018-03-04T22:53:37.523Z,96297
2018-03-04T22:56:05.860Z,96291
2018-03-04T22:58:34.221Z,96290
2018-03-04T23:01:02.602Z,96296
2018-03-04T23:03:30.994Z,96294
2018-03-04T23:06:00.154Z,96290
2018-03-04T23:08:28.485Z,96291
2018-03-04T23:10:56.814Z,96289
2018-03-04T23:13:25.160Z,96289
2018-03-04T23:15:53.526Z,96281
2018-03-04T23:18:21.841Z,96284
2018-03-04T23:20:50.364Z,96280
2018-03-04T23:23:18.698Z,96279
2018-03-04T23:25:47.050Z,96278
2018-03-04T23:28:15.419Z,96275
2018-03-04T23:30:43.785Z,96273
2018-03-04T23:33:12.143Z,96266
2018-03-04T23:35:40.470Z,96265
2018-03-04T23:38:08.944Z,96265
2018-03-04T23:40:37.305Z,96273
2018-03-04T23:43:05.772Z,96271
2018-03-04T23:45:34.086Z,96267
2018-03-04T23:48:02.520Z,96266
2018-03-04T23:50:30.842Z,96272
2018-03-04T23:52:59.188Z,96266
2018-03-04T23:55:27.527Z,96264
2018-03-04T23:57:55.898Z,96264
